createdAt,value
2023-02-12T00:00:51.950Z,-5.18
2023-02-12T00:03:18.701Z,-5.14
2023-02-12T00:05:45.203Z,-4.92
2023-02-12T00:08:12.193Z,-4.70
2023-02-12T00:10:43.183Z,-4.77
2023-02-12T00:13:12.264Z,-4.95
2023-02-12T00:15:42.234Z,-5.32
2023-02-12T00:18:08.933Z,-5.36
2023-02-12T00:20:36.630Z,-5.23
2023-02-12T00:23:04.484Z,-5.21
2023-02-12T00:25:30.947Z,-5.22
2023-02-12T00:27:57.512Z,-5.22
2023-02-12T00:30:23.981Z,-5.22
2023-02-12T00:32:50.494Z,-5.43
2023-02-12T00:35:16.950Z,-5.53
2023-02-12T00:37:44.549Z,-5.33
2023-02-12T00:40:11.368Z,-5.69
2023-02-12T00:42:39.739Z,-6.02
2023-02-12T00:45:06.395Z,-6.20
2023-02-12T00:47:32.954Z,-6.09
2023-02-12T00:49:59.815Z,-6.13
2023-02-12T00:52:26.267Z,-5.98
2023-02-12T00:54:52.768Z,-6.40
2023-02-12T00:57:19.289Z,-6.18
2023-02-12T00:59:45.739Z,-5.98
2023-02-12T01:02:12.195Z,-5.83
2023-02-12T01:04:38.759Z,-5.77
2023-02-12T01:07:05.230Z,-5.51
2023-02-12T01:09:31.787Z,-5.64
2023-02-12T01:11:58.292Z,-5.69
2023-02-12T01:14:26.154Z,-6.01
2023-02-12T01:16:52.662Z,-5.94
2023-02-12T01:19:19.128Z,-6.17
2023-02-12T01:21:45.618Z,-6.39
2023-02-12T01:24:12.662Z,-6.26
2023-02-12T01:26:39.101Z,-6.01
2023-02-12T01:29:08.385Z,-5.93
2023-02-12T01:31:37.565Z,-5.87
2023-02-12T01:34:05.136Z,-5.84
2023-02-12T01:36:32.247Z,-5.85
2023-02-12T01:38:59.291Z,-6.17
2023-02-12T01:41:27.228Z,-6.18
2023-02-12T01:44:05.783Z,-6.01
2023-02-12T01:46:33.407Z,-5.69
2023-02-12T01:49:00.924Z,-5.52
2023-02-12T01:51:29.124Z,-5.34
2023-02-12T01:53:59.526Z,-5.19
2023-02-12T01:56:26.069Z,-4.97
2023-02-12T01:58:56.710Z,-4.94
2023-02-12T02:01:25.982Z,-4.77
2023-02-12T02:03:54.028Z,-5.46
2023-02-12T02:06:22.682Z,-5.64
2023-02-12T02:08:49.524Z,-5.61
2023-02-12T02:11:35.983Z,-5.49
2023-02-12T02:14:20.706Z,-5.83
2023-02-12T02:16:57.434Z,-5.49
2023-02-12T02:19:44.161Z,-5.25
2023-02-12T02:22:25.085Z,-4.91
2023-02-12T02:25:12.544Z,-4.66
2023-02-12T02:27:47.837Z,-5.26
2023-02-12T02:30:24.094Z,-5.71
2023-02-12T02:32:59.761Z,-5.76
2023-02-12T02:35:26.217Z,-5.77
2023-02-12T02:37:55.677Z,-5.67
2023-02-12T02:40:27.248Z,-5.52
2023-02-12T02:42:58.137Z,-5.46
2023-02-12T02:45:39.030Z,-5.27
2023-02-12T02:48:28.847Z,-5.30
2023-02-12T02:51:00.813Z,-5.12
2023-02-12T02:53:30.049Z,-5.29
2023-02-12T02:55:59.102Z,-5.05
2023-02-12T02:58:45.776Z,-5.26
2023-02-12T03:01:21.118Z,-5.55
2023-02-12T03:03:51.127Z,-5.50
2023-02-12T03:06:29.885Z,-5.34
2023-02-12T03:08:58.616Z,-5.39
2023-02-12T03:11:31.274Z,-5.30
2023-02-12T03:14:02.659Z,-5.11
2023-02-12T03:16:33.334Z,-5.01
2023-02-12T03:19:14.186Z,-5.29
2023-02-12T03:21:46.403Z,-5.56
2023-02-12T03:24:26.171Z,-5.37
2023-02-12T03:26:58.197Z,-5.17
2023-02-12T03:29:24.690Z,-5.17
2023-02-12T03:31:57.114Z,-5.68
2023-02-12T03:34:26.220Z,-5.72
2023-02-12T03:37:01.861Z,-5.68
2023-02-12T03:39:38.740Z,-5.48
2023-02-12T03:42:24.498Z,-5.39
2023-02-12T03:44:58.381Z,-5.16
2023-02-12T03:47:44.287Z,-5.27
2023-02-12T03:50:14.283Z,-5.10
2023-02-12T03:52:41.179Z,-4.99
2023-02-12T03:55:08.401Z,-4.97
2023-02-12T03:57:38.465Z,-4.95
2023-02-12T04:00:07.721Z,-4.77
2023-02-12T04:02:34.235Z,-4.75
2023-02-12T04:05:07.767Z,-4.80
2023-02-12T04:07:35.965Z,-4.84
2023-02-12T04:10:02.740Z,-4.84
2023-02-12T04:12:41.296Z,-4.72
2023-02-12T04:15:17.944Z,-4.64
2023-02-12T04:17:50.212Z,-4.73
2023-02-12T04:20:28.950Z,-4.81
2023-02-12T04:22:59.177Z,-4.54
2023-02-12T04:25:25.653Z,-4.79
2023-02-12T04:28:10.405Z,-4.68
2023-02-12T04:30:47.218Z,-4.87
2023-02-12T04:33:17.434Z,-4.71
2023-02-12T04:35:48.205Z,-4.71
2023-02-12T04:38:19.278Z,-4.90
2023-02-12T04:40:46.417Z,-4.79
2023-02-12T04:43:12.924Z,-4.31
2023-02-12T04:45:39.670Z,-4.03
2023-02-12T04:48:06.701Z,-3.72
2023-02-12T04:50:40.931Z,-3.53
2023-02-12T04:53:07.961Z,-3.28
2023-02-12T04:55:34.478Z,-3.34
2023-02-12T04:58:00.942Z,-3.28
2023-02-12T05:00:28.957Z,-3.18
2023-02-12T05:02:55.478Z,-2.93
2023-02-12T05:05:22.426Z,-2.85
2023-02-12T05:07:49.132Z,-2.80
2023-02-12T05:10:15.765Z,-2.70
2023-02-12T05:12:43.366Z,-2.59
2023-02-12T05:15:09.968Z,-2.60
2023-02-12T05:17:37.577Z,-2.63
2023-02-12T05:20:04.552Z,-2.42
2023-02-12T05:22:32.157Z,-2.36
2023-02-12T05:24:58.626Z,-2.44
2023-02-12T05:27:25.124Z,-2.50
2023-02-12T05:29:51.667Z,-2.38
2023-02-12T05:32:19.405Z,-2.38
2023-02-12T05:34:45.964Z,-2.39
2023-02-12T05:37:13.717Z,-2.39
2023-02-12T05:39:40.162Z,-2.21
2023-02-12T05:42:06.711Z,-2.32
2023-02-12T05:44:33.201Z,-2.37
2023-02-12T05:46:59.810Z,-2.37
2023-02-12T05:49:26.328Z,-2.29
2023-02-12T05:51:52.814Z,-2.07
2023-02-12T05:54:20.502Z,-2.10
2023-02-12T05:56:47.872Z,-2.09
2023-02-12T05:59:16.749Z,-2.01
2023-02-12T06:01:44.590Z,-1.98
2023-02-12T06:04:13.934Z,-2.05
2023-02-12T06:06:44.752Z,-2.04
2023-02-12T06:09:12.136Z,-2.01
2023-02-12T06:11:38.642Z,-1.89
2023-02-12T06:14:06.464Z,-1.89
2023-02-12T06:16:33.629Z,-1.92
2023-02-12T06:19:01.186Z,-1.89
2023-02-12T06:21:27.987Z,-1.70
2023-02-12T06:23:55.592Z,-1.82
2023-02-12T06:26:25.322Z,-1.85
2023-02-12T06:28:55.110Z,-1.76
2023-02-12T06:31:21.666Z,-1.66
2023-02-12T06:33:49.299Z,-1.86
2023-02-12T06:36:16.323Z,-1.87
2023-02-12T06:38:43.028Z,-1.81
2023-02-12T06:41:10.641Z,-1.70
2023-02-12T06:43:37.292Z,-1.88
2023-02-12T06:46:05.645Z,-1.86
2023-02-12T06:48:33.622Z,-1.73
2023-02-12T06:51:07.536Z,-1.76
2023-02-12T06:53:34.992Z,-1.82
2023-02-12T06:56:02.386Z,-1.87
2023-02-12T06:58:29.332Z,-1.80
2023-02-12T07:00:55.953Z,-1.77
2023-02-12T07:03:22.495Z,-1.81
2023-02-12T07:05:49.068Z,-1.78
2023-02-12T07:08:15.818Z,-1.73
2023-02-12T07:10:42.291Z,-1.69
2023-02-12T07:13:09.963Z,-1.71
2023-02-12T07:15:40.032Z,-1.79
2023-02-12T07:18:07.834Z,-1.80
2023-02-12T07:20:34.416Z,-1.83
2023-02-12T07:23:00.890Z,-1.78
2023-02-12T07:25:27.338Z,-1.68
2023-02-12T07:27:53.973Z,-1.57
2023-02-12T07:30:20.473Z,-1.69
2023-02-12T07:32:46.942Z,-1.64
2023-02-12T07:35:13.470Z,-1.92
2023-02-12T07:37:39.977Z,-1.94
2023-02-12T07:40:06.957Z,-1.91
2023-02-12T07:42:33.455Z,-2.04
2023-02-12T07:44:59.971Z,-2.05
2023-02-12T07:47:27.813Z,-1.86
2023-02-12T07:49:54.350Z,-1.87
2023-02-12T07:52:20.817Z,-1.84
2023-02-12T07:54:47.804Z,-1.73
2023-02-12T07:57:14.403Z,-1.63
2023-02-12T07:59:40.890Z,-1.81
2023-02-12T08:02:07.459Z,-1.94
2023-02-12T08:04:34.101Z,-1.85
2023-02-12T08:07:00.663Z,-1.73
2023-02-12T08:09:27.993Z,-1.94
2023-02-12T08:11:55.924Z,-1.99
2023-02-12T08:14:23.791Z,-1.97
2023-02-12T08:16:50.848Z,-1.85
2023-02-12T08:19:22.557Z,-1.78
2023-02-12T08:21:51.884Z,-1.75
2023-02-12T08:24:19.405Z,-1.70
2023-02-12T08:26:45.899Z,-1.55
2023-02-12T08:29:17.054Z,-1.44
2023-02-12T08:31:46.319Z,-1.40
2023-02-12T08:34:17.654Z,-1.53
2023-02-12T08:36:44.432Z,-1.59
2023-02-12T08:39:12.507Z,-1.60
2023-02-12T08:41:40.209Z,-1.59
2023-02-12T08:44:06.679Z,-1.61
2023-02-12T08:46:37.019Z,-1.57
2023-02-12T08:49:06.783Z,-1.40
2023-02-12T08:51:37.186Z,-1.29
2023-02-12T08:54:05.201Z,-1.26
2023-02-12T08:56:33.242Z,-1.20
2023-02-12T08:59:00.327Z,-1.08
2023-02-12T09:01:28.306Z,-1.06
2023-02-12T09:03:55.288Z,-1.17
2023-02-12T09:06:22.821Z,-1.23
2023-02-12T09:08:49.418Z,-1.22
2023-02-12T09:11:32.685Z,-1.03
2023-02-12T09:14:02.280Z,-0.91
2023-02-12T09:16:29.952Z,-0.86
2023-02-12T09:18:56.990Z,-1.06
2023-02-12T09:21:23.727Z,-1.10
2023-02-12T09:23:51.666Z,-0.95
2023-02-12T09:26:23.365Z,-0.70
2023-02-12T09:28:51.771Z,-0.76
2023-02-12T09:31:21.059Z,-0.72
2023-02-12T09:33:51.227Z,-0.55
2023-02-12T09:36:19.902Z,-0.48
2023-02-12T09:38:46.414Z,-0.63
2023-02-12T09:41:43.792Z,-0.60
2023-02-12T09:44:10.213Z,-0.39
2023-02-12T09:46:45.391Z,-0.43
2023-02-12T09:49:17.862Z,-0.35
2023-02-12T09:51:45.710Z,-0.02
2023-02-12T09:54:17.176Z,-0.07
2023-02-12T09:56:46.924Z,-0.12
2023-02-12T09:59:19.754Z,-0.07
2023-02-12T10:01:46.324Z,0.20
2023-02-12T10:04:13.110Z,0.12
2023-02-12T10:06:48.577Z,0.10
2023-02-12T10:09:33.830Z,0.34
2023-02-12T10:12:00.379Z,0.33
2023-02-12T10:14:36.419Z,0.37
2023-02-12T10:17:10.149Z,0.55
2023-02-12T10:19:44.006Z,0.66
2023-02-12T10:22:19.524Z,0.64
2023-02-12T10:24:48.305Z,0.83
2023-02-12T10:27:16.173Z,0.98
2023-02-12T10:29:45.035Z,0.91
2023-02-12T10:32:22.805Z,0.95
2023-02-12T10:34:50.907Z,1.05
2023-02-12T10:37:25.999Z,1.28
2023-02-12T10:39:56.525Z,1.20
2023-02-12T10:42:33.476Z,1.22
2023-02-12T10:45:01.303Z,1.51
2023-02-12T10:47:28.901Z,1.45
2023-02-12T10:49:59.696Z,1.41
2023-02-12T10:52:58.485Z,1.40
2023-02-12T10:55:25.117Z,1.67
2023-02-12T10:57:51.840Z,1.60
2023-02-12T11:00:24.230Z,1.59
2023-02-12T11:03:02.462Z,1.51
2023-02-12T11:05:30.736Z,1.72
2023-02-12T11:07:59.927Z,1.73
2023-02-12T11:10:36.212Z,1.71
2023-02-12T11:13:03.060Z,1.80
2023-02-12T11:15:37.949Z,1.84
2023-02-12T11:18:08.042Z,1.65
2023-02-12T11:20:39.193Z,1.58
2023-02-12T11:23:06.966Z,1.62
2023-02-12T11:25:35.702Z,1.78
2023-02-12T11:28:05.474Z,1.59
2023-02-12T11:30:32.329Z,1.46
2023-02-12T11:33:16.362Z,1.47
2023-02-12T11:35:53.818Z,1.63
2023-02-12T11:38:25.341Z,1.66
2023-02-12T11:40:53.928Z,1.63
2023-02-12T11:43:21.021Z,1.76
2023-02-12T11:45:49.997Z,1.81
2023-02-12T11:48:22.604Z,1.62
2023-02-12T11:50:52.479Z,1.54
2023-02-12T11:53:27.856Z,1.75
2023-02-12T11:55:55.744Z,1.78
2023-02-12T11:58:23.402Z,1.74
2023-02-12T12:01:08.717Z,1.86
2023-02-12T12:03:58.562Z,2.18
2023-02-12T12:06:44.805Z,2.22
2023-02-12T12:09:23.428Z,2.27
2023-02-12T12:12:04.803Z,2.42
2023-02-12T12:15:22.157Z,2.25
2023-02-12T12:18:25.826Z,2.22
2023-02-12T12:21:03.912Z,2.49
2023-02-12T12:23:56.902Z,2.35
2023-02-12T12:26:31.355Z,2.24
2023-02-12T12:29:01.872Z,2.40
2023-02-12T12:31:31.369Z,2.36
2023-02-12T12:34:00.712Z,2.21
2023-02-12T12:36:54.902Z,2.21
2023-02-12T12:39:24.525Z,2.42
2023-02-12T12:42:02.770Z,2.36
2023-02-12T12:44:38.153Z,2.16
2023-02-12T12:47:11.855Z,2.14
2023-02-12T12:49:48.469Z,2.36
2023-02-12T12:52:23.801Z,2.16
2023-02-12T12:54:53.431Z,2.08
2023-02-12T12:57:23.008Z,2.02
2023-02-12T13:00:09.376Z,2.21
2023-02-12T13:02:38.582Z,2.19
2023-02-12T13:05:10.831Z,2.10
2023-02-12T13:07:43.264Z,2.06
2023-02-12T13:10:15.909Z,2.26
2023-02-12T13:12:47.913Z,2.10
2023-02-12T13:15:14.345Z,2.10
2023-02-12T13:17:50.742Z,2.27
2023-02-12T13:20:35.942Z,2.33
2023-02-12T13:23:11.998Z,2.25
2023-02-12T13:25:53.749Z,2.26
2023-02-12T13:28:35.469Z,2.23
2023-02-12T13:31:09.481Z,2.24
2023-02-12T13:33:45.166Z,2.17
2023-02-12T13:36:14.025Z,2.09
2023-02-12T13:38:45.831Z,1.98
2023-02-12T13:41:12.882Z,1.91
2023-02-12T13:43:46.616Z,2.21
2023-02-12T13:46:19.560Z,2.47
2023-02-12T13:49:06.057Z,2.70
2023-02-12T13:51:41.431Z,2.82
2023-02-12T13:54:08.034Z,2.57
2023-02-12T13:56:42.837Z,2.48
2023-02-12T13:59:27.881Z,2.35
2023-02-12T14:01:54.478Z,2.26
2023-02-12T14:04:20.949Z,2.25
2023-02-12T14:07:01.131Z,2.20
2023-02-12T14:09:34.081Z,2.50
2023-02-12T14:12:01.584Z,2.63
2023-02-12T14:14:31.328Z,2.67
2023-02-12T14:16:59.203Z,2.77
2023-02-12T14:19:39.149Z,2.98
2023-02-12T14:22:35.183Z,3.03
2023-02-12T14:25:22.732Z,2.95
2023-02-12T14:27:49.222Z,2.93
2023-02-12T14:30:25.758Z,2.65
2023-02-12T14:32:56.926Z,2.78
2023-02-12T14:35:26.480Z,2.40
2023-02-12T14:38:03.462Z,2.32
2023-02-12T14:40:31.607Z,2.36
2023-02-12T14:42:58.178Z,2.37
2023-02-12T14:45:34.005Z,2.37
2023-02-12T14:48:02.155Z,2.49
2023-02-12T14:50:30.678Z,2.67
2023-02-12T14:53:13.056Z,2.75
2023-02-12T14:55:43.643Z,2.95
2023-02-12T14:58:17.484Z,2.71
2023-02-12T15:00:45.965Z,2.70
2023-02-12T15:03:33.556Z,2.65
2023-02-12T15:06:17.225Z,2.62
2023-02-12T15:09:02.535Z,2.69
2023-02-12T15:12:02.524Z,2.75
2023-02-12T15:14:33.533Z,2.73
2023-02-12T15:17:07.570Z,2.66
2023-02-12T15:19:38.536Z,2.50
2023-02-12T15:22:17.589Z,2.32
2023-02-12T15:24:46.977Z,2.28
2023-02-12T15:27:15.455Z,2.51
2023-02-12T15:29:44.657Z,2.61
2023-02-12T15:32:28.512Z,2.58
2023-02-12T15:34:55.902Z,2.61
2023-02-12T15:37:25.010Z,2.61
2023-02-12T15:39:53.663Z,2.84
2023-02-12T15:42:24.173Z,2.91
2023-02-12T15:44:51.896Z,2.66
2023-02-12T15:47:24.697Z,2.58
2023-02-12T15:49:51.222Z,2.65
2023-02-12T15:52:19.773Z,2.71
2023-02-12T15:54:47.382Z,2.61
2023-02-12T15:57:20.755Z,2.70
2023-02-12T15:59:56.352Z,2.71
2023-02-12T16:02:28.536Z,2.88
2023-02-12T16:04:56.178Z,2.78
2023-02-12T16:07:23.278Z,2.77
2023-02-12T16:09:51.199Z,2.74
2023-02-12T16:12:21.407Z,2.70
2023-02-12T16:14:59.695Z,2.67
2023-02-12T16:17:26.156Z,2.61
2023-02-12T16:19:53.777Z,2.87
2023-02-12T16:22:23.059Z,2.72
2023-02-12T16:24:51.027Z,2.56
2023-02-12T16:27:20.345Z,2.38
2023-02-12T16:29:48.425Z,2.16
2023-02-12T16:32:28.506Z,2.08
2023-02-12T16:35:00.310Z,2.21
2023-02-12T16:37:38.902Z,2.26
2023-02-12T16:40:08.314Z,2.43
2023-02-12T16:42:35.027Z,2.31
2023-02-12T16:45:01.587Z,2.25
2023-02-12T16:47:29.638Z,2.27
2023-02-12T16:49:58.713Z,2.27
2023-02-12T16:52:31.030Z,2.37
2023-02-12T16:54:57.724Z,2.46
2023-02-12T16:57:24.246Z,2.45
2023-02-12T16:59:50.700Z,2.67
2023-02-12T17:02:17.201Z,2.52
2023-02-12T17:04:43.752Z,2.61
2023-02-12T17:07:20.890Z,2.47
2023-02-12T17:09:47.643Z,2.34
2023-02-12T17:12:14.333Z,2.27
2023-02-12T17:14:41.038Z,2.14
2023-02-12T17:17:07.589Z,2.28
2023-02-12T17:19:34.175Z,2.38
2023-02-12T17:22:00.842Z,2.65
2023-02-12T17:24:30.182Z,2.49
2023-02-12T17:26:56.996Z,2.67
2023-02-12T17:29:24.469Z,2.80
2023-02-12T17:31:53.772Z,2.72
2023-02-12T17:34:20.545Z,2.61
2023-02-12T17:36:48.395Z,2.96
2023-02-12T17:39:15.698Z,2.94
2023-02-12T17:41:44.193Z,2.92
2023-02-12T17:44:12.032Z,2.91
2023-02-12T17:46:38.641Z,2.98
2023-02-12T17:49:05.444Z,3.02
2023-02-12T17:51:31.966Z,3.25
2023-02-12T17:53:59.746Z,3.15
2023-02-12T17:56:26.202Z,3.01
2023-02-12T17:58:52.993Z,3.02
2023-02-12T18:01:20.734Z,3.04
2023-02-12T18:03:47.397Z,3.01
2023-02-12T18:06:16.451Z,3.27
2023-02-12T18:08:43.400Z,3.26
2023-02-12T18:11:11.342Z,3.10
2023-02-12T18:13:38.071Z,3.11
2023-02-12T18:16:08.497Z,3.09
2023-02-12T18:18:35.669Z,3.21
2023-02-12T18:21:05.900Z,3.27
2023-02-12T18:23:32.437Z,3.04
2023-02-12T18:25:59.590Z,3.09
2023-02-12T18:28:26.167Z,3.21
2023-02-12T18:30:57.632Z,3.12
2023-02-12T18:33:25.628Z,3.16
2023-02-12T18:36:04.665Z,3.39
2023-02-12T18:38:31.282Z,3.23
2023-02-12T18:40:59.942Z,3.11
2023-02-12T18:43:28.295Z,3.18
2023-02-12T18:45:55.346Z,3.16
2023-02-12T18:48:23.464Z,3.28
2023-02-12T18:50:51.809Z,3.47
2023-02-12T18:53:19.793Z,3.32
2023-02-12T18:55:46.533Z,3.36
2023-02-12T18:58:13.158Z,3.36
2023-02-12T19:00:39.857Z,3.44
2023-02-12T19:03:06.353Z,3.54
2023-02-12T19:05:32.899Z,3.46
2023-02-12T19:07:59.508Z,3.39
2023-02-12T19:10:27.564Z,3.27
2023-02-12T19:12:55.388Z,3.24
2023-02-12T19:15:23.365Z,3.47
2023-02-12T19:17:51.366Z,3.50
2023-02-12T19:20:17.993Z,3.32
2023-02-12T19:22:46.414Z,3.10
2023-02-12T19:25:13.024Z,2.98
2023-02-12T19:27:39.773Z,2.98
2023-02-12T19:30:08.170Z,3.20
2023-02-12T19:32:37.647Z,2.94
2023-02-12T19:35:06.381Z,2.81
2023-02-12T19:37:32.919Z,2.65
2023-02-12T19:39:59.547Z,2.71
2023-02-12T19:42:26.061Z,2.51
2023-02-12T19:44:52.550Z,2.56
2023-02-12T19:47:20.508Z,2.61
2023-02-12T19:49:47.071Z,2.62
2023-02-12T19:52:13.566Z,2.71
2023-02-12T19:54:40.108Z,2.86
2023-02-12T19:57:09.327Z,2.91
2023-02-12T19:59:36.548Z,3.15
2023-02-12T20:02:03.612Z,3.08
2023-02-12T20:04:30.990Z,3.07
2023-02-12T20:06:57.520Z,3.06
2023-02-12T20:09:25.385Z,3.04
2023-02-12T20:11:52.430Z,3.33
2023-02-12T20:14:22.636Z,3.32
2023-02-12T20:16:49.901Z,3.29
2023-02-12T20:19:18.291Z,3.30
2023-02-12T20:21:44.860Z,3.20
2023-02-12T20:24:11.306Z,3.34
2023-02-12T20:26:38.011Z,3.31
2023-02-12T20:29:05.403Z,3.21
2023-02-12T20:31:33.376Z,3.34
2023-02-12T20:34:01.818Z,3.13
2023-02-12T20:36:35.748Z,3.10
2023-02-12T20:39:02.681Z,3.26
2023-02-12T20:41:29.256Z,2.98
2023-02-12T20:43:56.065Z,2.74
2023-02-12T20:46:25.075Z,2.80
2023-02-12T20:48:52.439Z,2.60
2023-02-12T20:51:20.332Z,2.49
2023-02-12T20:53:48.243Z,2.63
2023-02-12T20:56:19.200Z,2.48
2023-02-12T20:58:46.070Z,2.26
2023-02-12T21:01:14.504Z,2.34
2023-02-12T21:03:41.415Z,2.26
2023-02-12T21:06:08.070Z,1.99
2023-02-12T21:08:39.680Z,2.04
2023-02-12T21:11:14.774Z,2.23
2023-02-12T21:14:20.945Z,1.94
2023-02-12T21:16:47.622Z,1.94
2023-02-12T21:19:15.420Z,2.11
2023-02-12T21:21:46.195Z,1.90
2023-02-12T21:24:13.908Z,1.69
2023-02-12T21:26:40.932Z,1.88
2023-02-12T21:29:07.658Z,1.86
2023-02-12T21:31:36.065Z,1.71
2023-02-12T21:34:03.541Z,1.72
2023-02-12T21:36:39.030Z,1.90
2023-02-12T21:39:06.604Z,1.76
2023-02-12T21:41:37.531Z,1.56
2023-02-12T21:44:06.208Z,1.74
2023-02-12T21:46:33.606Z,1.62
2023-02-12T21:49:00.191Z,1.53
2023-02-12T21:51:28.553Z,1.57
2023-02-12T21:53:57.664Z,1.60
2023-02-12T21:56:26.298Z,1.72
2023-02-12T21:58:53.557Z,1.87
2023-02-12T22:01:24.108Z,2.03
2023-02-12T22:03:51.017Z,2.01
2023-02-12T22:06:19.333Z,2.06
2023-02-12T22:08:46.541Z,2.25
2023-02-12T22:11:14.811Z,2.38
2023-02-12T22:13:43.437Z,2.35
2023-02-12T22:16:12.876Z,2.37
2023-02-12T22:18:39.870Z,2.57
2023-02-12T22:21:07.772Z,2.45
2023-02-12T22:23:35.763Z,2.23
2023-02-12T22:26:08.120Z,2.51
2023-02-12T22:28:34.690Z,2.59
2023-02-12T22:31:05.038Z,2.61
2023-02-12T22:33:31.495Z,2.85
2023-02-12T22:36:01.560Z,2.82
2023-02-12T22:38:28.929Z,2.83
2023-02-12T22:40:57.195Z,2.84
2023-02-12T22:43:23.799Z,2.99
2023-02-12T22:45:50.321Z,2.81
2023-02-12T22:48:18.029Z,2.83
2023-02-12T22:50:44.542Z,3.08
2023-02-12T22:53:12.193Z,2.96
2023-02-12T22:55:38.778Z,2.92
2023-02-12T22:58:05.359Z,2.92
2023-02-12T23:00:31.841Z,3.19
2023-02-12T23:02:58.299Z,3.01
2023-02-12T23:05:26.043Z,3.07
2023-02-12T23:07:52.633Z,3.32
2023-02-12T23:10:19.233Z,2.99
2023-02-12T23:12:46.196Z,2.94
2023-02-12T23:15:13.409Z,3.16
2023-02-12T23:17:39.859Z,3.12
2023-02-12T23:20:06.596Z,2.97
2023-02-12T23:22:34.323Z,3.12
2023-02-12T23:25:00.805Z,3.37
2023-02-12T23:27:28.363Z,3.22
2023-02-12T23:29:54.809Z,3.12
2023-02-12T23:32:21.286Z,3.29
2023-02-12T23:34:47.853Z,3.19
2023-02-12T23:37:14.308Z,3.06
2023-02-12T23:39:40.915Z,3.20
2023-02-12T23:42:07.998Z,3.43
2023-02-12T23:44:34.705Z,3.34
2023-02-12T23:47:02.116Z,3.37
2023-02-12T23:49:30.692Z,3.62
2023-02-12T23:51:57.221Z,3.48
2023-02-12T23:54:23.701Z,3.47
2023-02-12T23:56:50.144Z,3.44
2023-02-12T23:59:16.776Z,3.51
